Time;durP1;ratioP1;P1;durP2;ratioP2;P2;SDS_P1;SDS_P2;PMS_P1;PMS_P2;Temp;Humidity;BMP_temperature;BMP_pressure;BME280_temperature;BME280_humidity;BME280_pressure;Samples;Min_cycle;Max_cycle;Signal;HPM_P1;HPM_P2
2022/02/01 00:02:45;;;;;;;9.38;4.22;;;;;;;-0.01;80.75;142273.73;1758414;82;21509;-56
2022/02/01 00:05:10;;;;;;;8.18;4.05;;;;;;;0.01;80.68;142276.25;1756277;81;21110;-55
2022/02/01 00:13:04;;;;;;;9.83;4.33;;;;;;;0.01;80.32;142277.48;1793371;80;21019;-57
2022/02/01 00:37:05;;;;;;;9.83;4.30;;;;;;;0.04;79.94;142284.92;1728172;83;21584;-58
2022/02/01 00:39:40;;;;;;;9.43;4.55;;;;;;;0.01;79.86;142277.48;1727433;83;21067;-56
2022/02/01 00:41:59;;;;;;;9.05;4.50;;;;;;;0.01;79.83;142276.25;1726145;83;21008;-57
2022/02/01 00:44:26;;;;;;;15.75;4.87;;;;;;;-0.02;79.94;142271.27;1728013;83;21498;-57
2022/02/01 00:46:52;;;;;;;12.23;4.65;;;;;;;-0.01;80.11;142272.50;1727803;83;21071;-57
2022/02/01 00:49:20;;;;;;;9.35;4.15;;;;;;;-0.02;80.12;142271.27;1728210;83;22334;-57
2022/02/01 00:51:47;;;;;;;9.38;4.10;;;;;;;-0.01;80.12;142272.50;1727954;83;21103;-55
2022/02/01 00:54:15;;;;;;;10.82;4.37;;;;;;;-0.04;79.83;142265.05;1728042;83;21083;-55
2022/02/01 00:56:43;;;;;;;11.73;4.28;;;;;;;-0.05;79.99;142262.53;1727831;83;21080;-57
2022/02/01 00:59:10;;;;;;;11.63;5.05;;;;;;;-0.04;80.00;142265.05;1728189;83;21003;-57
2022/02/01 01:01:37;;;;;;;13.88;4.55;;;;;;;-0.03;80.02;142267.52;1727840;83;21048;-55
2022/02/01 01:04:04;;;;;;;9.33;4.35;;;;;;;-0.01;79.92;142272.50;1728158;83;21068;-57
2022/02/01 01:06:32;;;;;;;9.23;4.35;;;;;;;0.02;79.85;142278.72;1727927;83;21083;-57
2022/02/01 01:09:00;;;;;;;10.65;4.75;;;;;;;0.01;79.72;142276.25;1727880;83;21063;-57
2022/02/01 01:11:26;;;;;;;10.85;5.53;;;;;;;0.02;79.73;142279.94;1728089;83;21048;-55
2022/02/01 01:14:24;;;;;;;13.10;4.37;;;;;;;-0.02;79.64;142271.27;1728047;83;21048;-56
2022/02/01 01:44:05;;;;;;;12.37;5.53;;;;;;;-0.07;79.67;142257.59;1743476;82;21080;-54
2022/02/01 01:52:49;;;;;;;13.15;5.03;;;;;;;-0.08;79.84;142255.09;1742518;82;21490;-54
2022/02/01 01:54:28;;;;;;;11.28;5.95;;;;;;;-0.02;79.90;142271.27;1743370;82;21002;-56
2022/02/01 01:56:56;;;;;;;13.10;6.03;;;;;;;0.00;79.97;142275.02;1743133;82;21553;-55
2022/02/01 01:59:25;;;;;;;14.78;5.60;;;;;;;0.02;79.85;142279.94;1743450;82;21046;-54
2022/02/01 02:01:53;;;;;;;14.80;5.10;;;;;;;0.01;79.88;142277.48;1743482;82;20984;-56
2022/02/01 02:04:20;;;;;;;14.63;6.30;;;;;;;0.02;79.91;142279.94;1743084;82;21033;-58
2022/02/01 02:06:47;;;;;;;11.83;4.78;;;;;;;0.00;79.77;142275.02;1743126;82;21074;-54
2022/02/01 02:09:14;;;;;;;14.58;5.40;;;;;;;-0.01;79.75;142272.50;1743238;82;21525;-56
2022/02/01 02:14:19;;;;;;;12.13;5.20;;;;;;;-0.08;79.77;142256.31;1743323;82;21027;-56
2022/02/01 02:16:53;;;;;;;13.08;5.33;;;;;;;-0.08;79.90;142256.31;1743237;82;21015;-60
2022/02/01 02:19:22;;;;;;;14.18;6.28;;;;;;;-0.04;79.89;142265.05;1743407;82;21521;-57
2022/02/01 02:21:53;;;;;;;14.00;5.35;;;;;;;-0.04;79.65;142265.05;1742401;82;21039;-57
2022/02/01 02:24:21;;;;;;;16.23;5.25;;;;;;;-0.05;79.61;142262.53;1734994;83;21161;-58
2022/02/01 02:26:49;;;;;;;13.28;5.53;;;;;;;-0.05;79.68;142262.53;1734647;83;21613;-57
2022/02/01 02:29:17;;;;;;;16.48;5.55;;;;;;;-0.03;79.62;142267.52;1735035;83;21016;-55
2022/02/01 02:31:44;;;;;;;12.95;5.53;;;;;;;-0.01;79.55;142272.50;1793301;80;21023;-57
2022/02/01 02:34:15;;;;;;;11.85;5.50;;;;;;;0.01;79.43;142277.48;1793439;80;21059;-55
2022/02/01 02:36:53;;;;;;;12.90;5.07;;;;;;;0.02;79.54;142279.94;1758739;82;21036;-54
2022/02/01 02:39:33;;;;;;;14.75;5.25;;;;;;;0.04;79.51;142284.92;1757862;80;21008;-56
2022/02/01 02:42:12;;;;;;;13.93;6.00;;;;;;;0.05;79.41;142286.16;1758319;80;21022;-54
2022/02/01 02:47:28;;;;;;;10.40;5.00;;;;;;;0.01;79.10;142277.48;1793189;80;21019;-54
2022/02/01 02:49:55;;;;;;;13.20;5.28;;;;;;;0.00;79.01;142275.02;1793522;80;21016;-56
2022/02/01 02:52:26;;;;;;;16.27;5.90;;;;;;;-0.02;78.87;142270.03;1793217;80;21039;-55
2022/02/01 02:54:56;;;;;;;12.03;5.60;;;;;;;-0.07;78.96;142257.59;1793643;80;20967;-55
2022/02/01 02:57:24;;;;;;;14.73;5.33;;;;;;;-0.06;78.98;142261.30;1793357;80;21043;-56
2022/02/01 02:59:51;;;;;;;16.07;5.95;;;;;;;-0.04;78.95;142265.05;1793470;80;21007;-54
2022/02/01 03:02:19;;;;;;;13.55;5.60;;;;;;;-0.03;78.85;142267.52;1758149;80;21036;-55
2022/02/01 03:04:46;;;;;;;16.52;5.85;;;;;;;-0.06;78.87;142261.30;1758537;82;21538;-55
2022/02/01 03:07:14;;;;;;;16.93;7.30;;;;;;;-0.10;78.84;142250.11;1793155;80;21055;-56
2022/02/01 03:09:43;;;;;;;14.53;5.35;;;;;;;-0.13;79.09;142242.66;1793430;80;21524;-56
2022/02/01 03:12:19;;;;;;;12.07;5.10;;;;;;;-0.11;78.87;142248.87;1793197;80;21023;-56
2022/02/01 03:14:52;;;;;;;11.27;5.13;;;;;;;-0.10;78.92;142250.11;1758100;81;21537;-56
2022/02/01 03:19:53;;;;;;;15.95;5.60;;;;;;;-0.10;78.77;142251.39;1758543;82;21031;-56
2022/02/01 03:22:34;;;;;;;13.62;5.42;;;;;;;-0.08;78.81;142256.31;1759434;81;21091;-55
2022/02/01 03:25:00;;;;;;;13.85;5.83;;;;;;;-0.06;78.79;142260.06;1761418;81;21078;-56
2022/02/01 03:27:28;;;;;;;14.73;5.80;;;;;;;-0.05;78.72;142262.53;1762204;81;21019;-55
2022/02/01 03:29:55;;;;;;;13.50;6.22;;;;;;;-0.06;78.77;142261.30;1762018;81;21506;-55
2022/02/01 03:32:23;;;;;;;16.25;7.45;;;;;;;-0.04;78.75;142266.28;1762113;81;20999;-55
2022/02/01 03:34:52;;;;;;;14.43;6.72;;;;;;;-0.07;78.66;142258.84;1761829;81;21015;-55
2022/02/01 03:37:19;;;;;;;18.82;7.83;;;;;;;-0.10;78.65;142250.11;1762412;81;21015;-55
2022/02/01 03:39:46;;;;;;;15.75;7.75;;;;;;;-0.13;78.67;142242.66;1762241;81;21505;-55
2022/02/01 03:42:13;;;;;;;16.60;8.28;;;;;;;-0.12;78.79;142245.17;1762181;81;21035;-56
2022/02/01 03:44:41;;;;;;;15.83;7.55;;;;;;;-0.13;78.82;142243.89;1762021;81;21493;-56
2022/02/01 03:47:09;;;;;;;17.57;6.97;;;;;;;-0.15;78.88;142238.97;1762211;81;21088;-57
2022/02/01 03:49:40;;;;;;;18.40;6.60;;;;;;;-0.17;78.84;142232.75;1761904;81;21019;-56
2022/02/01 03:52:09;;;;;;;13.20;5.58;;;;;;;-0.24;78.93;142216.58;1742702;82;21076;-57
2022/02/01 03:54:37;;;;;;;15.13;5.50;;;;;;;-0.30;79.17;142202.91;1762037;81;21043;-55
2022/02/01 03:57:07;;;;;;;11.22;5.40;;;;;;;-0.33;79.33;142195.47;1762117;81;21081;-55
2022/02/01 03:59:34;;;;;;;15.03;5.78;;;;;;;-0.34;79.40;142191.72;1742509;82;21083;-95
2022/02/01 04:02:04;;;;;;;17.10;6.03;;;;;;;-0.42;79.51;142173.09;1761904;81;21063;-55
2022/02/01 04:04:33;;;;;;;12.65;6.75;;;;;;;-0.43;79.73;142170.63;1764168;81;21548;-56
2022/02/01 04:07:02;;;;;;;12.15;5.70;;;;;;;-0.45;79.88;142166.87;1764295;81;21012;-55
2022/02/01 04:09:29;;;;;;;12.82;5.30;;;;;;;-0.43;79.95;142170.63;1764272;81;21493;-55
2022/02/01 04:11:59;;;;;;;14.98;6.08;;;;;;;-0.45;79.95;142166.87;1764389;81;21108;-56
2022/02/01 04:14:32;;;;;;;18.52;7.00;;;;;;;-0.42;80.09;142171.84;1764313;81;21496;-56
2022/02/01 04:17:04;;;;;;;15.68;7.15;;;;;;;-0.39;80.14;142179.30;1764237;81;21556;-55
2022/02/01 04:19:32;;;;;;;16.27;6.37;;;;;;;-0.38;80.19;142181.77;1764286;81;21513;-54
2022/02/01 04:22:01;;;;;;;12.80;6.28;;;;;;;-0.39;80.20;142180.53;1764255;81;21004;-56
2022/02/01 04:24:42;;;;;;;14.55;6.10;;;;;;;-0.44;80.29;142168.11;1758450;80;21083;-56
2022/02/01 04:27:18;;;;;;;12.07;6.25;;;;;;;-0.49;80.57;142155.69;1758316;82;21055;-55
2022/02/01 04:29:45;;;;;;;14.00;5.70;;;;;;;-0.51;80.79;142150.70;1757334;81;21079;-59
2022/02/01 04:32:09;;;;;;;16.55;6.62;;;;;;;-0.50;80.91;142153.22;1757977;81;21031;-56
2022/02/01 04:34:35;;;;;;;14.03;6.40;;;;;;;-0.48;81.03;142158.19;1793439;80;21182;-56
2022/02/01 04:37:03;;;;;;;13.65;6.80;;;;;;;-0.48;81.06;142158.19;1793057;80;21078;-56
2022/02/01 04:39:29;;;;;;;16.62;8.03;;;;;;;-0.48;81.22;142159.44;1793446;80;21050;-54
2022/02/01 04:41:56;;;;;;;15.85;7.72;;;;;;;-0.48;81.39;142158.19;1793168;80;21024;-55
2022/02/01 04:44:26;;;;;;;19.27;9.10;;;;;;;-0.47;81.52;142160.66;1758632;82;21517;-58
2022/02/01 04:46:52;;;;;;;22.05;8.83;;;;;;;-0.47;81.65;142160.66;1793553;80;21011;-56
2022/02/01 04:49:19;;;;;;;18.73;9.28;;;;;;;-0.45;81.80;142165.64;1793542;80;21063;-55
2022/02/01 04:51:46;;;;;;;23.18;9.70;;;;;;;-0.47;81.74;142160.66;1758264;82;21028;-57
2022/02/01 04:54:13;;;;;;;22.65;8.13;;;;;;;-0.52;81.92;142148.23;1793464;80;21058;-55
2022/02/01 04:56:40;;;;;;;19.73;7.87;;;;;;;-0.57;82.11;142135.81;1793404;80;21035;-57
2022/02/01 04:59:07;;;;;;;18.20;9.03;;;;;;;-0.61;82.35;142127.14;1793607;80;21038;-55
2022/02/01 05:01:40;;;;;;;20.05;9.03;;;;;;;-0.67;82.56;142113.44;1793312;80;21031;-56
2022/02/01 05:04:08;;;;;;;17.23;7.40;;;;;;;-0.69;82.73;142107.22;1758277;80;21035;-54
2022/02/01 05:06:36;;;;;;;20.85;8.10;;;;;;;-0.69;82.84;142108.50;1758489;80;21043;-54
2022/02/01 05:09:04;;;;;;;17.55;7.78;;;;;;;-0.73;82.86;142098.55;1758431;82;21035;-56
2022/02/01 05:11:31;;;;;;;21.40;8.23;;;;;;;-0.77;83.10;142087.36;1793488;80;21508;-54
2022/02/01 05:14:05;;;;;;;20.35;8.90;;;;;;;-0.77;83.23;142088.59;1793280;80;21526;-55
2022/02/01 05:16:40;;;;;;;18.27;7.10;;;;;;;-0.74;83.32;142096.09;1757405;80;21067;-55
2022/02/01 05:19:04;;;;;;;15.93;7.58;;;;;;;-0.73;83.27;142098.55;1790214;80;21093;-56
2022/02/01 05:21:31;;;;;;;18.05;8.20;;;;;;;-0.73;83.23;142097.31;1758459;81;21012;-56
2022/02/01 05:23:58;;;;;;;20.65;8.00;;;;;;;-0.76;83.23;142091.11;1762313;81;21007;-55
2022/02/01 05:26:26;;;;;;;23.45;8.93;;;;;;;-0.79;83.28;142083.66;1762581;81;21059;-56
2022/02/01 05:28:53;;;;;;;24.87;8.75;;;;;;;-0.81;83.37;142078.69;1742199;82;21040;-55
2022/02/01 05:31:21;;;;;;;19.02;8.33;;;;;;;-0.80;83.45;142079.92;1742344;82;22420;-54
2022/02/01 05:33:48;;;;;;;14.80;7.45;;;;;;;-0.80;83.55;142081.16;1742595;82;21024;-56
2022/02/01 05:36:15;;;;;;;18.87;8.75;;;;;;;-0.80;83.55;142081.16;1762212;81;21059;-55
2022/02/01 05:38:42;;;;;;;21.42;9.05;;;;;;;-0.80;83.55;142081.16;1762230;81;21091;-54
2022/02/01 05:41:11;;;;;;;19.25;8.70;;;;;;;-0.83;83.45;142073.72;1742274;82;21116;-55
2022/02/01 05:43:42;;;;;;;19.73;9.18;;;;;;;-0.88;83.58;142061.28;1742671;82;21049;-55
2022/02/01 05:46:06;;;;;;;18.57;9.45;;;;;;;-0.95;83.74;142043.89;1761750;81;20981;-54
2022/02/01 05:48:32;;;;;;;24.75;9.58;;;;;;;-0.97;83.96;142038.92;1732419;83;21049;-56
2022/02/01 05:51:00;;;;;;;20.68;9.18;;;;;;;-0.98;84.01;142036.45;1762241;81;21016;-55
2022/02/01 05:53:28;;;;;;;18.65;9.30;;;;;;;-0.99;84.12;142035.22;1761973;81;21518;-55
2022/02/01 05:55:55;;;;;;;26.48;9.85;;;;;;;-0.97;84.20;142040.16;1742278;82;21037;-56
2022/02/01 05:58:22;;;;;;;17.77;8.53;;;;;;;-0.96;84.12;142042.66;1742330;82;21068;-56
2022/02/01 06:00:49;;;;;;;22.22;8.93;;;;;;;-0.98;84.16;142036.45;1761989;81;21024;-54
2022/02/01 06:03:16;;;;;;;17.90;9.25;;;;;;;-1.02;84.32;142026.50;1762025;81;21030;-56
2022/02/01 06:05:43;;;;;;;24.18;9.60;;;;;;;-1.02;84.37;142026.50;1742600;82;21498;-57
2022/02/01 06:08:12;;;;;;;24.45;11.12;;;;;;;-1.07;84.43;142015.31;1733943;83;21568;-56
2022/02/01 06:10:39;;;;;;;37.28;11.63;;;;;;;-1.08;84.56;142011.63;1764678;81;21182;-55
2022/02/01 06:13:06;;;;;;;28.92;12.37;;;;;;;-1.07;84.65;142015.31;1764147;81;21528;-56
2022/02/01 06:15:35;;;;;;;27.05;12.15;;;;;;;-1.03;84.67;142024.03;1764330;81;21043;-55
2022/02/01 06:18:04;;;;;;;24.30;11.68;;;;;;;-1.00;84.56;142031.47;1764235;81;21505;-57
2022/02/01 06:20:31;;;;;;;30.55;13.03;;;;;;;-0.98;84.56;142036.45;1764382;81;21050;-58
2022/02/01 06:22:58;;;;;;;26.05;11.78;;;;;;;-0.93;84.56;142048.88;1763442;81;21031;-54
2022/02/01 06:25:47;;;;;;;24.85;12.40;;;;;;;-0.89;84.49;142058.78;1750972;81;21059;-53
2022/02/01 06:27:53;;;;;;;24.47;11.63;;;;;;;-0.86;84.40;142066.27;1747660;81;21038;-54
2022/02/01 06:30:20;;;;;;;22.70;10.98;;;;;;;-0.84;84.19;142071.25;1718251;83;21015;-52
2022/02/01 06:32:47;;;;;;;24.40;11.88;;;;;;;-0.82;84.12;142076.17;1712860;83;21044;-57
2022/02/01 06:35:13;;;;;;;27.98;12.63;;;;;;;-0.81;84.04;142078.69;1723261;83;21051;-54
2022/02/01 06:37:40;;;;;;;25.75;11.90;;;;;;;-0.79;83.89;142083.66;1750503;81;21020;-55
2022/02/01 06:40:08;;;;;;;26.73;13.38;;;;;;;-0.74;83.80;142094.81;1721129;83;21021;-55
2022/02/01 06:42:35;;;;;;;24.90;11.28;;;;;;;-0.71;83.66;142103.53;1722060;83;21013;-55
2022/02/01 06:45:03;;;;;;;29.45;11.80;;;;;;;-0.68;83.50;142110.97;1740554;81;21573;-55
2022/02/01 06:47:30;;;;;;;24.00;11.12;;;;;;;-0.64;83.32;142118.41;1731003;83;21141;-54
2022/02/01 06:49:58;;;;;;;25.55;11.60;;;;;;;-0.63;83.16;142122.16;1722693;82;21043;-53
2022/02/01 06:52:25;;;;;;;28.70;12.68;;;;;;;-0.63;83.08;142120.94;1731049;83;21044;-54
2022/02/01 06:54:52;;;;;;;21.25;11.53;;;;;;;-0.63;82.95;142120.94;1700672;84;20995;-55
2022/02/01 06:57:19;;;;;;;28.70;11.65;;;;;;;-0.64;82.85;142119.66;1731393;83;21536;-56
2022/02/01 06:59:45;;;;;;;28.05;14.07;;;;;;;-0.62;82.76;142123.39;1711555;83;21051;-55
2022/02/01 07:02:12;;;;;;;24.65;11.60;;;;;;;-0.60;82.75;142128.38;1735867;81;21004;-57
2022/02/01 07:04:39;;;;;;;30.15;12.05;;;;;;;-0.57;82.63;142135.81;1741618;81;21005;-55
2022/02/01 07:07:06;;;;;;;26.17;11.45;;;;;;;-0.52;82.58;142148.23;1731159;83;21034;-56
2022/02/01 07:09:35;;;;;;;32.45;12.10;;;;;;;-0.48;82.40;142158.19;1715058;83;21045;-61
2022/02/01 07:12:05;;;;;;;32.73;13.00;;;;;;;-0.45;82.07;142165.64;1734666;81;21113;-59
2022/02/01 07:14:31;;;;;;;27.32;11.93;;;;;;;-0.45;81.99;142165.64;1755708;81;21027;-61
2022/02/01 07:16:58;;;;;;;31.55;14.40;;;;;;;-0.42;81.81;142171.84;1701882;84;21102;-60
2022/02/01 07:19:25;;;;;;;29.65;12.88;;;;;;;-0.42;81.68;142171.84;1715356;83;21531;-60
2022/02/01 07:21:51;;;;;;;27.95;12.43;;;;;;;-0.42;81.60;142173.09;1714826;82;21001;-57
2022/02/01 07:24:27;;;;;;;32.25;12.95;;;;;;;-0.34;81.59;142191.72;1735469;82;21035;-58
2022/02/01 07:26:55;;;;;;;41.92;16.15;;;;;;;-0.28;81.26;142207.89;1732986;83;21023;-60
2022/02/01 07:29:16;;;;;;;33.33;15.30;;;;;;;-0.26;80.99;142212.83;1732839;83;21171;-58
2022/02/01 07:31:42;;;;;;;40.33;18.02;;;;;;;-0.23;81.03;142220.33;1749041;80;21007;-58
2022/02/01 07:34:11;;;;;;;38.60;16.25;;;;;;;-0.15;80.81;142238.97;1793575;80;21023;-59
2022/02/01 07:36:38;;;;;;;34.48;15.28;;;;;;;-0.10;80.42;142251.39;1779570;80;21031;-60
2022/02/01 07:39:06;;;;;;;33.65;14.85;;;;;;;-0.07;80.27;142257.59;1782353;78;21073;-60
2022/02/01 07:41:33;;;;;;;33.18;13.90;;;;;;;-0.07;80.19;142258.84;1778998;80;20995;-58
2022/02/01 07:43:59;;;;;;;28.35;12.35;;;;;;;-0.06;80.08;142260.06;1779646;80;21000;-60
2022/02/01 07:46:29;;;;;;;22.70;10.75;;;;;;;-0.04;80.00;142265.05;1779629;80;20969;-59
2022/02/01 07:48:55;;;;;;;36.17;14.53;;;;;;;0.03;79.82;142281.22;1780695;80;20975;-58
2022/02/01 07:51:22;;;;;;;32.17;15.10;;;;;;;0.06;79.45;142289.91;1778920;80;20999;-58
2022/02/01 07:53:48;;;;;;;33.38;14.78;;;;;;;0.11;79.44;142302.34;1783273;80;21501;-59
2022/02/01 07:56:15;;;;;;;29.63;13.50;;;;;;;0.15;79.13;142311.02;1791865;80;21042;-60
2022/02/01 07:58:42;;;;;;;32.53;16.10;;;;;;;0.18;78.99;142319.75;1784806;80;21071;-60
2022/02/01 08:01:08;;;;;;;35.17;14.80;;;;;;;0.19;78.76;142320.98;1751627;82;21113;-58
2022/02/01 08:03:35;;;;;;;39.23;15.65;;;;;;;0.25;78.75;142334.66;1778734;80;21067;-60
2022/02/01 08:06:02;;;;;;;38.42;15.13;;;;;;;0.31;78.54;142349.59;1735664;82;21473;-60
2022/02/01 08:08:31;;;;;;;33.85;14.53;;;;;;;0.36;78.22;142362.03;1758228;81;21075;-59
2022/02/01 08:10:58;;;;;;;31.12;13.55;;;;;;;0.42;78.09;142376.94;1758327;82;21519;-59
2022/02/01 08:19:04;;;;;;;25.72;12.65;;;;;;;0.55;77.07;142409.25;1772101;80;21602;-58
2022/02/01 08:21:27;;;;;;;29.32;12.70;;;;;;;0.56;77.10;142411.77;1766948;78;21070;-59
2022/02/01 08:23:54;;;;;;;31.77;12.88;;;;;;;0.64;76.85;142431.66;1762963;80;21148;-59
2022/02/01 08:26:21;;;;;;;30.20;12.63;;;;;;;0.73;76.56;142451.53;1779426;80;21086;-57
2022/02/01 08:28:49;;;;;;;29.00;13.75;;;;;;;0.75;76.13;142456.53;1772091;80;21388;-58
2022/02/01 08:31:17;;;;;;;34.25;12.68;;;;;;;0.75;75.98;142457.75;1781265;80;21039;-59
2022/02/01 08:33:45;;;;;;;27.55;11.25;;;;;;;0.79;75.96;142467.73;1768311;80;21062;-57
2022/02/01 08:36:12;;;;;;;24.65;11.88;;;;;;;0.84;75.79;142478.89;1775552;80;21041;-59
2022/02/01 08:38:39;;;;;;;24.65;12.05;;;;;;;0.89;75.65;142491.38;1776669;80;21072;-58
2022/02/01 08:41:06;;;;;;;25.27;11.68;;;;;;;0.94;75.33;142503.81;1777822;80;21053;-58
2022/02/01 08:43:33;;;;;;;29.20;11.48;;;;;;;1.02;75.18;142522.47;1790361;80;21070;-58
2022/02/01 08:46:00;;;;;;;33.05;13.32;;;;;;;1.11;75.09;142543.59;1792416;80;21691;-59
2022/02/01 08:48:26;;;;;;;26.87;12.00;;;;;;;1.21;74.60;142569.72;1790289;80;21583;-59
2022/02/01 08:50:55;;;;;;;25.20;11.95;;;;;;;1.26;74.28;142580.92;1784689;80;21078;-61
2022/02/01 08:53:24;;;;;;;24.60;11.53;;;;;;;1.34;74.28;142600.83;1751014;82;21087;-58
2022/02/01 08:58:28;;;;;;;24.52;10.53;;;;;;;1.51;73.54;142641.91;1789092;80;21038;-58
2022/02/01 09:00:53;;;;;;;21.77;9.43;;;;;;;1.63;73.26;142671.80;1767840;80;21012;-59
2022/02/01 09:03:20;;;;;;;17.50;10.20;;;;;;;1.78;72.58;142707.91;1791967;80;21142;-58
2022/02/01 09:05:49;;;;;;;20.75;10.60;;;;;;;1.94;72.54;142746.50;1791969;80;21058;-58
2022/02/01 09:08:17;;;;;;;24.55;9.35;;;;;;;2.05;71.82;142773.86;1792119;80;21054;-59
2022/02/01 09:10:45;;;;;;;22.30;11.30;;;;;;;2.15;71.21;142797.53;1781140;80;21062;-59
2022/02/01 09:13:11;;;;;;;23.90;10.40;;;;;;;2.18;71.01;142805.00;1774433;80;21086;-59
2022/02/01 09:15:38;;;;;;;21.80;10.58;;;;;;;2.22;70.37;142814.97;1765831;78;21007;-58
2022/02/01 09:18:05;;;;;;;24.30;10.08;;;;;;;2.19;70.24;142807.52;1792850;80;21055;-58
2022/02/01 09:20:32;;;;;;;20.50;9.43;;;;;;;2.18;69.91;142805.00;1793454;80;20995;-58
2022/02/01 09:23:01;;;;;;;21.30;9.33;;;;;;;2.14;70.28;142795.06;1790652;80;21059;-59
2022/02/01 09:25:28;;;;;;;18.62;9.60;;;;;;;2.17;69.80;142802.53;1769430;80;21159;-58
2022/02/01 09:27:55;;;;;;;17.42;9.58;;;;;;;2.16;69.38;142801.28;1772430;80;20985;-59
2022/02/01 09:30:22;;;;;;;21.93;10.10;;;;;;;2.20;69.25;142809.98;1802230;80;21508;-58
2022/02/01 09:32:49;;;;;;;21.82;11.00;;;;;;;2.24;69.04;142819.97;1800009;80;21926;-59
2022/02/01 09:35:16;;;;;;;19.85;9.23;;;;;;;2.26;69.11;142823.67;1770808;81;21002;-59
2022/02/01 09:37:43;;;;;;;18.20;9.35;;;;;;;2.30;68.99;142834.89;1771177;80;21517;-58
2022/02/01 09:40:11;;;;;;;20.57;9.88;;;;;;;2.41;68.80;142859.81;1777148;80;21010;-58
2022/02/01 09:42:39;;;;;;;20.95;10.65;;;;;;;2.47;68.58;142874.73;1777336;80;22094;-58
2022/02/01 09:45:09;;;;;;;18.35;8.50;;;;;;;2.57;68.56;142900.94;1770526;80;21038;-57
2022/02/01 09:47:46;;;;;;;22.15;9.88;;;;;;;2.61;67.11;142910.88;1771062;80;21002;-58
2022/02/01 09:50:18;;;;;;;20.92;10.13;;;;;;;2.49;67.78;142879.72;1793715;80;21023;-58
2022/02/01 09:52:45;;;;;;;19.32;10.25;;;;;;;2.55;67.99;142894.70;1791704;80;21054;-60
2022/02/01 09:55:14;;;;;;;21.85;9.65;;;;;;;2.66;67.79;142922.09;1770466;80;21065;-59
2022/02/01 09:57:45;;;;;;;25.92;9.95;;;;;;;2.74;67.63;142942.02;1772566;80;21144;-59
2022/02/01 10:00:16;;;;;;;21.73;10.38;;;;;;;2.83;67.12;142964.47;1800532;80;21528;-59
2022/02/01 10:02:47;;;;;;;22.95;10.82;;;;;;;2.83;67.05;142964.47;1802499;80;21014;-58
2022/02/01 10:05:16;;;;;;;24.87;10.93;;;;;;;2.82;66.72;142961.98;1764674;81;21051;-58
2022/02/01 10:07:55;;;;;;;26.60;10.60;;;;;;;2.88;66.82;142974.45;1734290;82;21003;-58
2022/02/01 10:10:27;;;;;;;19.60;10.15;;;;;;;2.92;66.27;142985.62;1731970;83;21062;-58
2022/02/01 10:13:15;;;;;;;22.02;9.55;;;;;;;2.83;66.22;142964.47;1751032;81;21466;-60
2022/02/01 10:16:00;;;;;;;22.40;9.83;;;;;;;2.94;66.53;142989.38;1732137;82;21055;-58
2022/02/01 10:18:35;;;;;;;20.95;10.63;;;;;;;3.14;66.36;143039.23;1724473;82;21011;-59
2022/02/01 10:21:14;;;;;;;18.62;9.68;;;;;;;3.35;65.70;143089.09;1732271;82;21075;-59
2022/02/01 10:23:44;;;;;;;19.77;9.03;;;;;;;3.53;65.26;143133.97;1751329;81;21016;-59
2022/02/01 10:26:20;;;;;;;23.00;9.60;;;;;;;3.53;63.13;143132.72;1721793;83;21035;-59
2022/02/01 10:29:05;;;;;;;17.37;9.68;;;;;;;3.35;62.88;143089.09;1749847;81;21031;-59
2022/02/01 10:37:01;;;;;;;20.50;10.25;;;;;;;3.01;63.57;143006.84;1759205;81;21098;-58
2022/02/01 10:39:31;;;;;;;21.40;10.38;;;;;;;3.08;63.88;143024.30;1735637;81;21054;-58
2022/02/01 10:42:05;;;;;;;18.20;9.13;;;;;;;3.08;63.80;143024.30;1719796;83;21142;-58
2022/02/01 10:44:46;;;;;;;23.02;10.82;;;;;;;3.04;63.70;143015.55;1723452;83;21491;-59
2022/02/01 10:47:20;;;;;;;22.25;10.82;;;;;;;3.03;63.44;143013.06;1734769;83;21018;-58
2022/02/01 10:49:47;;;;;;;23.83;10.60;;;;;;;2.89;63.46;142976.92;1759484;81;21071;-59
2022/02/01 10:52:18;;;;;;;23.70;12.33;;;;;;;2.91;62.64;142981.92;1759915;81;20974;-58
2022/02/01 10:54:44;;;;;;;23.05;10.43;;;;;;;2.99;62.52;143001.84;1734880;83;21047;-59
2022/02/01 10:57:13;;;;;;;22.00;9.53;;;;;;;3.05;61.83;143016.78;1756167;81;21086;-58
2022/02/01 10:59:40;;;;;;;21.75;9.43;;;;;;;3.06;61.81;143019.30;1763234;81;21485;-58
2022/02/01 11:02:07;;;;;;;19.73;9.40;;;;;;;3.13;61.55;143036.75;1736904;81;21011;-59
2022/02/01 11:04:38;;;;;;;16.67;9.43;;;;;;;3.17;61.17;143045.47;1743842;81;21071;-58
2022/02/01 11:07:06;;;;;;;20.92;10.03;;;;;;;3.13;60.91;143036.75;1702174;83;21054;-58
2022/02/01 11:09:35;;;;;;;17.92;9.75;;;;;;;3.08;60.87;143024.30;1736919;81;20971;-58
2022/02/01 11:12:13;;;;;;;20.70;10.10;;;;;;;3.12;60.58;143034.25;1733707;81;21036;-58
2022/02/01 11:14:49;;;;;;;17.98;8.38;;;;;;;3.13;60.45;143035.47;1707203;83;21061;-58
2022/02/01 11:17:18;;;;;;;21.12;8.78;;;;;;;3.05;60.40;143016.78;1729617;83;21090;-58
2022/02/01 11:19:57;;;;;;;24.47;11.18;;;;;;;3.03;60.17;143013.06;1751458;81;21039;-58
2022/02/01 11:22:35;;;;;;;15.32;8.33;;;;;;;3.05;60.36;143016.78;1757902;81;20999;-58
2022/02/01 11:25:21;;;;;;;16.67;6.83;;;;;;;3.11;60.29;143031.77;1733314;81;21112;-58
2022/02/01 11:28:09;;;;;;;14.07;6.55;;;;;;;3.09;59.40;143026.78;1750706;81;21659;-58
2022/02/01 11:30:41;;;;;;;15.15;7.47;;;;;;;3.00;59.37;143004.31;1745667;81;21023;-58
2022/02/01 11:33:10;;;;;;;17.40;8.03;;;;;;;2.98;59.19;142999.38;1750993;81;21043;-58
2022/02/01 11:35:38;;;;;;;15.38;7.53;;;;;;;2.97;59.19;142996.84;1735992;81;21030;-59
2022/02/01 11:38:20;;;;;;;15.25;8.25;;;;;;;2.98;59.25;142999.38;1730491;82;21101;-58
2022/02/01 11:40:51;;;;;;;17.90;8.98;;;;;;;2.90;59.62;142980.69;1730517;82;21027;-58
2022/02/01 11:43:24;;;;;;;18.92;9.43;;;;;;;2.88;60.05;142974.45;1730011;82;20976;-59
2022/02/01 11:46:04;;;;;;;16.70;9.35;;;;;;;2.92;60.58;142984.39;1755969;80;21105;-58
2022/02/01 11:48:33;;;;;;;17.57;8.68;;;;;;;2.93;60.40;142986.91;1757949;81;21365;-60
2022/02/01 11:51:05;;;;;;;23.27;9.60;;;;;;;2.93;60.82;142988.16;1737358;81;21024;-59
2022/02/01 11:53:41;;;;;;;16.60;7.87;;;;;;;3.01;60.46;143008.08;1747914;81;21206;-58
2022/02/01 11:56:11;;;;;;;16.70;8.40;;;;;;;3.02;59.79;143010.55;1756152;81;21008;-58
2022/02/01 11:58:49;;;;;;;17.57;8.00;;;;;;;2.94;59.82;142989.38;1748309;81;21062;-58
2022/02/01 12:01:34;;;;;;;18.98;8.60;;;;;;;2.82;59.91;142961.98;1738732;81;21507;-58
2022/02/01 12:04:10;;;;;;;21.30;8.28;;;;;;;2.67;59.89;142924.61;1730452;82;21081;-58
2022/02/01 12:06:55;;;;;;;17.17;8.50;;;;;;;2.45;60.24;142869.78;1730333;83;21696;-61
2022/02/01 12:09:22;;;;;;;20.77;9.20;;;;;;;2.27;60.52;142827.44;1718510;83;21683;-63
2022/02/01 12:12:01;;;;;;;14.98;7.90;;;;;;;2.20;60.71;142809.98;1726286;82;20986;-60
2022/02/01 12:14:29;;;;;;;16.52;7.62;;;;;;;2.13;60.91;142792.53;1724484;83;21047;-59
2022/02/01 12:16:58;;;;;;;18.37;8.23;;;;;;;2.09;60.92;142782.61;1750754;81;21059;-59
2022/02/01 12:19:38;;;;;;;16.35;7.92;;;;;;;2.07;60.18;142777.63;1750013;82;21075;-60
2022/02/01 12:22:28;;;;;;;22.55;10.03;;;;;;;2.00;59.95;142761.41;1757002;81;21145;-60
2022/02/01 12:25:08;;;;;;;30.95;11.22;;;;;;;2.00;60.36;142760.19;1759416;81;21071;-60
2022/02/01 12:27:39;;;;;;;21.15;8.88;;;;;;;2.01;60.29;142763.94;1792770;77;21627;-59
2022/02/01 12:30:09;;;;;;;18.02;7.87;;;;;;;2.10;60.53;142785.08;1793236;80;21010;-60
2022/02/01 12:32:38;;;;;;;20.15;8.28;;;;;;;2.15;59.79;142797.53;1795148;80;21031;-60
2022/02/01 12:35:05;;;;;;;14.43;6.97;;;;;;;2.16;59.58;142801.28;1787999;80;21023;-59
2022/02/01 12:37:33;;;;;;;12.73;6.30;;;;;;;2.09;59.18;142783.84;1757425;80;21633;-59
2022/02/01 12:40:09;;;;;;;12.20;6.65;;;;;;;2.00;59.12;142761.41;1757698;81;21022;-59
2022/02/01 12:42:43;;;;;;;21.23;8.80;;;;;;;1.95;58.74;142750.19;1730595;83;21106;-60
2022/02/01 12:48:01;;;;;;;14.47;7.47;;;;;;;1.81;59.15;142715.38;1757984;81;21063;-60
2022/02/01 12:50:28;;;;;;;16.20;7.55;;;;;;;1.80;59.29;142712.84;1731411;83;21051;-60
2022/02/01 12:53:01;;;;;;;20.05;7.25;;;;;;;1.78;59.33;142707.91;1760510;81;22305;-59
2022/02/01 12:55:29;;;;;;;15.48;7.12;;;;;;;1.74;59.51;142699.16;1731249;83;21557;-60